Airfield :







YOU CAN JOIN US ON...

 
LOGIN :

Register | Disclaimer

   EN    FR    IT 

 









Legend :    VFR   Marginal VFR   IFR   Intensive IFR   Very Intensive IFR
Visi :
Ceiling :
>= 8 km
>= 3000ft
5 to 8 km
1000 to 3000 ft
1500m to 5 km
500 to 1000 ft
800 to 1500m
200 to 500 ft
< 800m
< 200 ft
Symbols :   Thunderstorms  Fog  Heavy snow  Heavy precipitations  Wind > 20 kt







- Airport Elevation : 193 ft
- IATA code : ZBF


CZBF - Bathurst

CURRENT METAR :
  • 171800Z AUTO 23005KT 210V270 9SM BKN040 29/21 A2967 RMK SLP048 DENSITY ALT 2100FT

EXPIRED METARs :
  • 171700Z AUTO 29010G15KT 250V310 9SM FEW036 29/20 A2968 RMK SLP052 DENSITY ALT 2000FT
  • 171600Z AUTO 27008G16KT 9SM BKN040 BKN047 28/21 A2970 RMK SLP058 DENSITY ALT 2000FT

TAF TAF CZBF
Valid from the 17 at 14:00 until the 18 at 02:00 UTC


171338Z 1714/1802 16006KT P6SM FEW040
BECMG 1714/1716 26010KT
FM171700 28010G20KT P6SM BKN040
TEMPO 1717/1720 4SM -SHRA BR OVC030
PROB30 1717/1720 VRB15G25KT 2SM TSRA BR BKN007 OVC020CB
FM172000 28010KT P6SM SCT040
FM172200 33008KT P6SM SKC RMK FCST BASED ON AUTO OBS. NXT FCST BY 172000Z
CZQM FIR / North America



MET'MAP, your aeronautical weather chart ! - Copyright ORBIFLY December 2007 - Disclaimer

ORBIFLY MET'MAP TEAM :

Programming & Development : Alexandra Zaïnal
Concept & Development : Baudouin d'Aumeries
Co-Development & Prog : Marc-Olivier Méhu
Technical & hardware support : Manuel Goepfert

Contact : metmap@orbifly.com




SOURCES & CREDITS :

   NOAA